createdAt,value
2023-04-15T00:00:02.440Z,88.6
2023-04-15T00:15:02.713Z,88.7
2023-04-15T00:30:03.177Z,88.5
2023-04-15T00:45:02.590Z,88.5
2023-04-15T01:00:03.033Z,89.4
2023-04-15T01:15:02.469Z,89.3
2023-04-15T01:30:02.907Z,89.2
2023-04-15T01:45:02.451Z,89.6
2023-04-15T02:00:02.761Z,89.5
2023-04-15T02:15:03.258Z,89.2
2023-04-15T02:30:02.630Z,89.3
2023-04-15T02:45:03.137Z,89.7
2023-04-15T03:00:02.531Z,90.2
2023-04-15T03:15:02.976Z,90.5
2023-04-15T03:30:02.482Z,90.7
2023-04-15T03:45:02.822Z,91.1
2023-04-15T04:00:03.475Z,91.7
2023-04-15T04:15:02.696Z,92.7
2023-04-15T04:30:02.140Z,93.2
2023-04-15T04:45:02.605Z,93.6
2023-04-15T05:00:03.009Z,94.7
2023-04-15T05:15:02.496Z,96.5
2023-04-15T05:30:02.884Z,97.0
2023-04-15T05:45:02.499Z,97.3
2023-04-15T06:00:02.780Z,97.5
2023-04-15T06:15:03.229Z,97.5
2023-04-15T06:30:02.648Z,97.5
2023-04-15T06:45:03.139Z,97.4
2023-04-15T07:00:02.532Z,97.3
2023-04-15T07:15:02.958Z,97.2
2023-04-15T07:30:02.509Z,97.1
2023-04-15T07:45:02.837Z,96.9
2023-04-15T08:00:02.284Z,96.8
2023-04-15T08:15:02.711Z,96.8
2023-04-15T08:30:05.091Z,96.8
2023-04-15T08:45:02.622Z,96.9
2023-04-15T09:00:03.990Z,97.1
2023-04-15T09:15:02.555Z,97.0
2023-04-15T09:30:02.868Z,97.0
2023-04-15T09:45:02.543Z,96.9
2023-04-15T10:00:02.771Z,97.0
2023-04-15T10:15:03.224Z,96.9
2023-04-15T10:30:02.665Z,96.9
2023-04-15T10:45:03.105Z,96.8
2023-04-15T11:00:02.572Z,96.7
2023-04-15T11:15:02.979Z,96.6
2023-04-15T11:30:02.563Z,96.6
2023-04-15T11:45:02.865Z,96.5
2023-04-15T12:00:02.271Z,96.6
2023-04-15T12:15:02.715Z,97.0
2023-04-15T12:30:03.171Z,97.2
2023-04-15T12:45:02.616Z,97.5
2023-04-15T13:00:03.040Z,97.7
2023-04-15T13:15:04.968Z,97.9
2023-04-15T13:30:02.877Z,98.0
2023-04-15T13:45:02.320Z,98.1
2023-04-15T14:00:02.748Z,98.2
2023-04-15T14:15:03.226Z,98.2
2023-04-15T14:30:02.602Z,98.3
2023-04-15T14:45:03.120Z,98.2
2023-04-15T15:00:02.638Z,98.3
2023-04-15T15:15:06.876Z,98.3
2023-04-15T15:45:02.792Z,98.4
2023-04-15T16:15:02.680Z,98.7
2023-04-15T16:30:03.115Z,98.9
2023-04-15T16:45:02.645Z,99.1
2023-04-15T17:00:03.057Z,99.3
2023-04-15T17:15:02.636Z,99.4
2023-04-15T17:30:02.883Z,99.6
2023-04-15T17:45:02.389Z,99.7
2023-04-15T18:00:02.790Z,99.8
2023-04-15T18:15:03.192Z,99.9
2023-04-15T18:30:02.660Z,100.0
2023-04-15T18:45:03.104Z,100.0
2023-04-15T19:00:02.636Z,100.0
2023-04-15T19:15:02.994Z,100.0
2023-04-15T19:30:02.647Z,100.0
2023-04-15T19:45:02.838Z,100.0
2023-04-15T20:00:02.300Z,100.0
2023-04-15T20:15:02.717Z,100.0
2023-04-15T20:30:03.168Z,100.0
2023-04-15T20:45:02.688Z,100.0
2023-04-15T21:00:03.116Z,100.0
2023-04-15T21:15:02.668Z,100.0
2023-04-15T21:30:02.917Z,100.0
2023-04-15T21:45:02.355Z,100.0
2023-04-15T22:00:02.768Z,100.0
2023-04-15T22:15:03.255Z,100.0
2023-04-15T22:30:02.678Z,100.0
2023-04-15T22:45:03.126Z,100.0
2023-04-15T23:00:02.680Z,100.0
2023-04-15T23:15:02.978Z,100.0
2023-04-15T23:30:02.395Z,100.0
2023-04-15T23:45:02.837Z,100.0
